Time;durP1;ratioP1;P1;durP2;ratioP2;P2;SDS_P1;SDS_P2;PMS_P1;PMS_P2;Temp;Humidity;BMP_temperature;BMP_pressure;BME280_temperature;BME280_humidity;BME280_pressure;Samples;Min_cycle;Max_cycle;Signal;HPM_P1;HPM_P2
2021/12/16 00:01:59;;;;;;;102.10;55.38;;;;;;;-145.45;100.00;62759.84;5173358;28;20047;-88
2021/12/16 00:07:30;;;;;;;94.97;52.80;;;;;;;-145.45;100.00;62759.84;5219038;28;20042;-88
2021/12/16 00:10:20;;;;;;;100.72;53.80;;;;;;;-145.45;100.00;62759.84;5217063;28;20041;-88
2021/12/16 00:30:03;;;;;;;99.53;54.10;;;;;;;-145.45;100.00;62759.84;5232278;28;20047;-88
2021/12/16 00:32:46;;;;;;;93.30;51.20;;;;;;;-145.45;100.00;62759.84;5210570;28;20053;-89
2021/12/16 00:35:19;;;;;;;88.75;48.53;;;;;;;-145.45;100.00;62759.84;5215599;28;20057;-89
2021/12/16 00:37:51;;;;;;;89.78;50.20;;;;;;;-145.45;100.00;62759.84;5223584;28;20014;-89
2021/12/16 00:40:23;;;;;;;90.13;51.47;;;;;;;-145.45;100.00;62759.84;5229138;28;20093;-89
2021/12/16 00:42:59;;;;;;;91.07;51.88;;;;;;;-145.45;100.00;62759.84;5216907;28;20023;-89
2021/12/16 00:45:46;;;;;;;84.03;50.22;;;;;;;-145.45;100.00;62759.84;5205521;28;20101;-89
2021/12/16 00:56:20;;;;;;;88.97;50.63;;;;;;;-145.45;100.00;62759.84;5217048;28;20422;-88
2021/12/16 00:58:56;;;;;;;94.05;50.78;;;;;;;-145.45;100.00;62759.84;5214067;28;20037;-89
2021/12/16 01:01:41;;;;;;;89.63;50.97;;;;;;;-145.45;100.00;62759.84;5203235;28;20048;-88
2021/12/16 01:41:14;;;;;;;87.07;47.10;;;;;;;-145.45;100.00;62759.84;5229846;28;20034;-89
2021/12/16 01:46:38;;;;;;;83.35;49.70;;;;;;;-145.45;100.00;62759.84;5235190;28;19921;-88
2021/12/16 01:53:13;;;;;;;87.68;49.58;;;;;;;-145.45;100.00;62759.84;5233833;28;20383;-89
2021/12/16 01:55:10;;;;;;;85.50;48.75;;;;;;;-145.45;100.00;62759.84;5226392;28;20031;-89
2021/12/16 01:57:47;;;;;;;83.28;47.92;;;;;;;-145.45;100.00;62759.84;5227101;28;20035;-88
2021/12/16 02:00:41;;;;;;;91.25;51.83;;;;;;;-145.45;100.00;62759.84;5214916;28;20451;-89
2021/12/16 02:03:15;;;;;;;89.20;49.33;;;;;;;-145.45;100.00;62759.84;5199972;28;20051;-89
2021/12/16 02:08:27;;;;;;;84.28;47.88;;;;;;;-145.45;100.00;62759.84;5227335;28;20064;-89
2021/12/16 02:11:19;;;;;;;90.53;50.15;;;;;;;-145.45;100.00;62759.84;5222108;28;20018;-89
2021/12/16 02:27:50;;;;;;;80.75;49.22;;;;;;;-145.45;100.00;62759.84;5231872;28;20512;-89
2021/12/16 02:35:59;;;;;;;81.97;47.97;;;;;;;-145.45;100.00;62759.84;5223634;28;20058;-89
2021/12/16 02:38:33;;;;;;;81.93;48.03;;;;;;;-145.45;100.00;62759.84;5215066;28;20125;-88
2021/12/16 02:41:04;;;;;;;80.63;46.35;;;;;;;-145.45;100.00;62759.84;5202511;28;20038;-89
2021/12/16 02:48:45;;;;;;;88.50;49.15;;;;;;;-145.45;100.00;62759.84;5214092;28;20056;-89
2021/12/16 02:51:21;;;;;;;87.88;49.72;;;;;;;-145.45;100.00;62759.84;5206752;28;20049;-89
2021/12/16 02:53:57;;;;;;;85.55;50.70;;;;;;;-145.45;100.00;62759.84;5211982;28;20394;-89
2021/12/16 02:56:29;;;;;;;81.88;49.55;;;;;;;-145.45;100.00;62759.84;5224707;28;20069;-89
2021/12/16 02:59:01;;;;;;;82.40;47.63;;;;;;;-145.45;100.00;62759.84;5202115;28;20432;-88
2021/12/16 03:01:48;;;;;;;85.15;48.30;;;;;;;-145.45;100.00;62759.84;5217042;28;20022;-88
2021/12/16 03:04:21;;;;;;;85.82;50.45;;;;;;;-145.45;100.00;62759.84;5209732;28;20033;-89
2021/12/16 03:06:56;;;;;;;84.15;48.38;;;;;;;-145.45;100.00;62759.84;5220857;28;20434;-88
2021/12/16 03:10:03;;;;;;;77.65;48.15;;;;;;;-145.45;100.00;62759.84;5200966;28;20035;-88
2021/12/16 03:12:41;;;;;;;83.50;46.95;;;;;;;-145.45;100.00;62759.84;5229488;28;20489;-89
2021/12/16 03:20:55;;;;;;;79.35;48.22;;;;;;;-145.45;100.00;62759.84;5221778;28;20062;-89
2021/12/16 03:23:58;;;;;;;84.95;49.45;;;;;;;-145.45;100.00;62759.84;5235847;28;20030;-89
2021/12/16 03:27:08;;;;;;;82.68;45.97;;;;;;;-145.45;100.00;62759.84;5193376;28;20054;-88
2021/12/16 03:29:51;;;;;;;81.93;45.60;;;;;;;-145.45;100.00;62759.84;5231479;28;20066;-88
2021/12/16 03:38:10;;;;;;;79.10;46.45;;;;;;;-145.45;100.00;62759.84;5174374;28;20114;-89
2021/12/16 03:40:42;;;;;;;82.35;48.72;;;;;;;-145.45;100.00;62759.84;5220028;28;20026;-88
2021/12/16 03:43:17;;;;;;;78.13;46.35;;;;;;;-145.45;100.00;62759.84;5222383;28;20395;-88
2021/12/16 03:48:48;;;;;;;81.75;47.15;;;;;;;-145.45;100.00;62759.84;5214983;28;20077;-88
2021/12/16 03:51:39;;;;;;;80.68;47.50;;;;;;;-145.45;100.00;62759.84;5219976;28;20038;-88
2021/12/16 03:54:19;;;;;;;85.68;45.88;;;;;;;-145.45;100.00;62759.84;5214527;28;20022;-88
2021/12/16 03:56:52;;;;;;;78.85;46.58;;;;;;;-145.45;100.00;62759.84;5201880;28;20468;-88
2021/12/16 03:59:27;;;;;;;89.47;49.95;;;;;;;-145.45;100.00;62759.84;5226504;28;20037;-88
2021/12/16 04:02:02;;;;;;;86.25;48.95;;;;;;;-145.45;100.00;62759.84;5236576;28;20035;-88
2021/12/16 04:04:34;;;;;;;78.82;46.33;;;;;;;-145.45;100.00;62759.84;5210431;28;20468;-89
2021/12/16 04:07:06;;;;;;;86.75;48.85;;;;;;;-145.45;100.00;62759.84;5226437;28;20035;-88
2021/12/16 04:09:37;;;;;;;85.60;49.22;;;;;;;-145.45;100.00;62759.84;5224685;28;20046;-88
2021/12/16 04:12:12;;;;;;;87.03;48.20;;;;;;;-145.45;100.00;62759.84;5222598;28;20763;-88
2021/12/16 04:14:44;;;;;;;83.93;48.58;;;;;;;-145.45;100.00;62759.84;5214532;28;20023;-89
2021/12/16 04:17:17;;;;;;;83.18;49.03;;;;;;;-145.45;100.00;62759.84;5229092;28;20030;-88
2021/12/16 04:19:49;;;;;;;75.18;45.70;;;;;;;-145.45;100.00;62759.84;5221389;28;20034;-89
2021/12/16 04:22:30;;;;;;;81.68;47.55;;;;;;;-145.45;100.00;62759.84;5221739;28;20085;-89
2021/12/16 04:25:06;;;;;;;84.75;47.92;;;;;;;-145.45;100.00;62759.84;5241637;28;20026;-88
2021/12/16 04:27:39;;;;;;;79.72;47.00;;;;;;;-145.45;100.00;62759.84;5222353;28;20037;-88
2021/12/16 04:30:13;;;;;;;78.43;44.40;;;;;;;-145.45;100.00;62759.84;5220938;28;20022;-88
2021/12/16 04:32:45;;;;;;;82.68;47.25;;;;;;;-145.45;100.00;62759.84;5203101;28;20069;-88
2021/12/16 04:35:17;;;;;;;80.65;47.80;;;;;;;-145.45;100.00;62759.84;5221148;28;20463;-89
2021/12/16 04:37:49;;;;;;;90.68;49.95;;;;;;;-145.45;100.00;62759.84;5219617;28;20026;-88
2021/12/16 04:40:21;;;;;;;79.30;46.53;;;;;;;-145.45;100.00;62759.84;5218203;28;20382;-88
2021/12/16 04:42:58;;;;;;;90.70;50.95;;;;;;;-145.45;100.00;62759.84;5220575;28;20030;-89
2021/12/16 04:45:32;;;;;;;86.43;48.30;;;;;;;-145.45;100.00;62759.84;5223182;28;20065;-89
2021/12/16 04:48:05;;;;;;;88.55;48.58;;;;;;;-145.45;100.00;62759.84;5207760;28;20129;-88
2021/12/16 04:50:36;;;;;;;77.75;46.67;;;;;;;-145.45;100.00;62759.84;5220277;28;20442;-88
2021/12/16 04:53:08;;;;;;;87.13;49.42;;;;;;;-145.45;100.00;62759.84;5220824;28;20062;-88
2021/12/16 04:55:39;;;;;;;87.85;49.50;;;;;;;-145.45;100.00;62759.84;5218776;28;20053;-88
2021/12/16 04:58:10;;;;;;;87.32;48.72;;;;;;;-145.45;100.00;62759.84;5218001;28;20438;-87
2021/12/16 05:00:42;;;;;;;90.30;50.22;;;;;;;-145.45;100.00;62759.84;5209756;28;20169;-88
2021/12/16 05:03:13;;;;;;;89.47;49.22;;;;;;;-145.45;100.00;62759.84;5220378;28;20117;-88
2021/12/16 05:05:44;;;;;;;99.57;51.78;;;;;;;-145.45;100.00;62759.84;5220447;28;20038;-88
2021/12/16 05:08:16;;;;;;;89.53;49.67;;;;;;;-145.45;100.00;62759.84;5221953;28;20085;-88
2021/12/16 05:10:49;;;;;;;88.68;48.22;;;;;;;-145.45;100.00;62759.84;5220412;28;20023;-88
2021/12/16 05:13:24;;;;;;;86.10;46.53;;;;;;;-145.45;100.00;62759.84;5229729;28;20045;-88
2021/12/16 05:16:00;;;;;;;83.60;46.72;;;;;;;-145.45;100.00;62759.84;5201755;28;20093;-87
2021/12/16 05:18:36;;;;;;;94.32;49.65;;;;;;;-145.45;100.00;62759.84;5219502;28;20105;-87
2021/12/16 05:21:36;;;;;;;93.60;48.17;;;;;;;-145.45;100.00;62759.84;5219954;28;20025;-87
2021/12/16 05:24:16;;;;;;;94.75;49.97;;;;;;;-145.45;100.00;62759.84;5217372;28;20035;-88
2021/12/16 05:26:47;;;;;;;107.35;53.35;;;;;;;-145.45;100.00;62759.84;5203759;28;20033;-88
2021/12/16 05:29:19;;;;;;;96.47;49.63;;;;;;;-145.45;100.00;62759.84;5224199;28;20402;-88
2021/12/16 05:31:51;;;;;;;101.47;52.65;;;;;;;-145.45;100.00;62759.84;5215359;28;20117;-88
2021/12/16 05:34:23;;;;;;;106.20;52.85;;;;;;;-145.45;100.00;62759.84;5206733;28;20050;-88
2021/12/16 05:36:55;;;;;;;113.30;54.92;;;;;;;-145.45;100.00;62759.84;5210150;28;20123;-88
2021/12/16 05:39:26;;;;;;;110.97;54.17;;;;;;;-145.45;100.00;62759.84;5224344;28;20023;-88
2021/12/16 05:41:58;;;;;;;112.18;53.80;;;;;;;-145.45;100.00;62759.84;5199286;28;20122;-88
2021/12/16 05:44:29;;;;;;;108.63;54.90;;;;;;;-145.45;100.00;62759.84;5229349;28;20026;-88
2021/12/16 05:47:00;;;;;;;117.32;54.33;;;;;;;-145.45;100.00;62759.84;5212330;28;20032;-88
2021/12/16 05:49:32;;;;;;;114.90;54.85;;;;;;;-145.45;100.00;62759.84;5213049;28;20092;-87
2021/12/16 05:52:04;;;;;;;105.20;52.28;;;;;;;-145.45;100.00;62759.84;5219161;28;37078;-89
2021/12/16 05:54:35;;;;;;;140.43;51.13;;;;;;;-145.45;100.00;62759.84;5219351;28;20026;-89
2021/12/16 05:57:06;;;;;;;123.90;53.40;;;;;;;-145.45;100.00;62759.84;5220499;28;20023;-89
2021/12/16 05:59:38;;;;;;;132.10;56.38;;;;;;;-145.45;100.00;62759.84;5201039;28;20022;-89
2021/12/16 06:02:09;;;;;;;126.03;56.25;;;;;;;-145.45;100.00;62759.84;5211824;28;20122;-89
2021/12/16 06:04:40;;;;;;;187.57;51.65;;;;;;;-145.45;100.00;62759.84;5219186;28;20015;-89
2021/12/16 06:07:12;;;;;;;206.25;53.15;;;;;;;-145.45;100.00;62759.84;5218656;28;20676;-89
2021/12/16 06:09:45;;;;;;;142.95;53.60;;;;;;;-145.45;100.00;62759.84;5219541;28;20429;-89
2021/12/16 06:12:17;;;;;;;146.90;59.42;;;;;;;-145.45;100.00;62759.84;5212849;28;20034;-89
2021/12/16 06:14:57;;;;;;;135.52;59.83;;;;;;;-145.45;100.00;62759.84;5228757;28;20092;-89
2021/12/16 06:28:37;;;;;;;156.32;57.40;;;;;;;-145.45;100.00;62759.84;5215606;28;20483;-89
2021/12/16 06:31:08;;;;;;;171.25;63.38;;;;;;;-145.45;100.00;62759.84;5222993;28;20029;-88
2021/12/16 06:33:39;;;;;;;173.50;62.95;;;;;;;-145.45;100.00;62759.84;5219399;28;20466;-89
2021/12/16 06:36:11;;;;;;;177.18;63.95;;;;;;;-145.45;100.00;62759.84;5217879;28;20082;-89
2021/12/16 06:38:42;;;;;;;154.52;57.47;;;;;;;-145.45;100.00;62759.84;5201786;28;20022;-89
2021/12/16 06:41:14;;;;;;;350.20;68.00;;;;;;;-145.45;100.00;62759.84;5222655;28;20446;-89
2021/12/16 06:43:47;;;;;;;184.18;67.50;;;;;;;-145.45;100.00;62759.84;5223582;28;20032;-89
2021/12/16 06:46:21;;;;;;;184.57;64.22;;;;;;;-145.45;100.00;62759.84;5223889;28;20033;-89
2021/12/16 06:48:57;;;;;;;192.90;67.88;;;;;;;-145.45;100.00;62759.84;5222536;28;20089;-89
2021/12/16 06:51:51;;;;;;;169.52;63.03;;;;;;;-145.45;100.00;62759.84;5221783;28;20117;-89
2021/12/16 06:54:29;;;;;;;164.70;62.28;;;;;;;-145.45;100.00;62759.84;5223022;28;20102;-89
2021/12/16 06:57:45;;;;;;;182.40;63.83;;;;;;;-145.45;100.00;62759.84;5223697;28;20022;-88
2021/12/16 07:00:06;;;;;;;191.60;67.45;;;;;;;-145.45;100.00;62759.84;5213316;28;20077;-88
2021/12/16 07:02:58;;;;;;;199.52;71.05;;;;;;;-145.45;100.00;62759.84;5222411;28;20069;-87
2021/12/16 07:05:40;;;;;;;199.30;69.95;;;;;;;-145.45;100.00;62759.84;5222786;28;20138;-88
2021/12/16 07:08:17;;;;;;;166.13;62.10;;;;;;;-145.45;100.00;62759.84;5222261;28;20044;-88
2021/12/16 07:10:51;;;;;;;219.85;72.35;;;;;;;-145.45;100.00;62759.84;5221891;28;20023;-88
2021/12/16 07:13:35;;;;;;;184.80;62.70;;;;;;;-145.45;100.00;62759.84;5220965;28;20526;-88
2021/12/16 07:16:09;;;;;;;297.58;67.25;;;;;;;-145.45;100.00;62759.84;5214946;28;20049;-88
2021/12/16 07:18:41;;;;;;;200.13;71.50;;;;;;;-145.45;100.00;62759.84;5222247;28;20522;-88
2021/12/16 07:21:12;;;;;;;230.95;75.72;;;;;;;-145.45;100.00;62759.84;5240610;28;20038;-88
2021/12/16 07:23:43;;;;;;;222.20;72.80;;;;;;;-145.45;100.00;62759.84;5234520;28;20018;-87
2021/12/16 07:26:15;;;;;;;229.40;73.75;;;;;;;-145.45;100.00;62759.84;5217542;28;20047;-88
2021/12/16 07:28:46;;;;;;;187.13;66.65;;;;;;;-145.45;100.00;62759.84;5215357;28;20019;-88
2021/12/16 07:31:18;;;;;;;220.00;76.50;;;;;;;-145.45;100.00;62759.84;5198842;28;20034;-88
2021/12/16 07:33:49;;;;;;;211.05;74.45;;;;;;;-145.45;100.00;62759.84;5215276;28;20058;-87
2021/12/16 07:36:22;;;;;;;241.98;76.85;;;;;;;-145.45;100.00;62759.84;5209868;28;20159;-87
2021/12/16 07:38:54;;;;;;;220.63;74.43;;;;;;;-145.45;100.00;62759.84;5204306;28;20038;-87
2021/12/16 07:41:31;;;;;;;218.07;73.35;;;;;;;-145.45;100.00;62759.84;5209850;28;20019;-87
2021/12/16 07:44:12;;;;;;;535.28;82.72;;;;;;;-145.45;100.00;62759.84;5205787;28;20038;-86
2021/12/16 07:46:49;;;;;;;196.75;61.67;;;;;;;-145.45;100.00;62759.84;5215101;28;20033;-87
2021/12/16 07:49:28;;;;;;;210.88;68.60;;;;;;;-145.45;100.00;62759.84;5200752;28;20082;-87
2021/12/16 07:52:04;;;;;;;251.25;77.22;;;;;;;-145.45;100.00;62759.84;5200432;28;20027;-88
2021/12/16 07:54:36;;;;;;;216.18;74.13;;;;;;;-145.45;100.00;62759.84;5219883;28;20097;-87
2021/12/16 07:57:07;;;;;;;222.45;74.60;;;;;;;-145.45;100.00;62759.84;5221762;28;20110;-87
2021/12/16 07:59:39;;;;;;;212.73;66.20;;;;;;;-145.45;100.00;62759.84;5223794;28;20026;-87
2021/12/16 08:02:11;;;;;;;220.02;67.75;;;;;;;-145.45;100.00;62759.84;5241708;28;20142;-87
2021/12/16 08:04:45;;;;;;;190.10;65.63;;;;;;;-145.45;100.00;62759.84;5225841;28;20435;-87
2021/12/16 08:07:18;;;;;;;890.80;97.38;;;;;;;-145.45;100.00;62759.84;5221579;28;20026;-89
2021/12/16 08:09:50;;;;;;;187.82;57.65;;;;;;;-145.45;100.00;62759.84;5220906;28;20039;-86
2021/12/16 08:12:21;;;;;;;209.48;72.65;;;;;;;-145.45;100.00;62759.84;5220288;28;20093;-86
2021/12/16 08:14:52;;;;;;;265.13;76.22;;;;;;;-145.45;100.00;62759.84;5203973;28;20042;-87
2021/12/16 08:17:24;;;;;;;263.73;76.00;;;;;;;-145.45;100.00;62759.84;5228033;28;20018;-87
2021/12/16 08:19:55;;;;;;;364.50;85.13;;;;;;;-145.45;100.00;62759.84;5229737;28;20057;-86
2021/12/16 08:22:26;;;;;;;214.55;70.45;;;;;;;-145.45;100.00;62759.84;5231581;28;20308;-86
2021/12/16 08:24:58;;;;;;;244.10;78.22;;;;;;;-145.45;100.00;62759.84;5233447;28;20022;-86
2021/12/16 08:27:29;;;;;;;282.25;84.95;;;;;;;-145.45;100.00;62759.84;5217819;28;20109;-85
2021/12/16 08:30:01;;;;;;;533.45;86.70;;;;;;;-145.45;100.00;62759.84;5220609;28;20037;-86
2021/12/16 08:32:32;;;;;;;818.05;111.50;;;;;;;-145.45;100.00;62759.84;5228009;28;20037;-86
2021/12/16 08:35:06;;;;;;;237.25;77.72;;;;;;;-145.45;100.00;62759.84;5226268;28;20340;-88
2021/12/16 08:37:39;;;;;;;240.43;69.32;;;;;;;-145.45;100.00;62759.84;5223190;28;20145;-88
2021/12/16 08:40:18;;;;;;;261.48;75.63;;;;;;;-145.45;100.00;62759.84;5221652;28;20046;-88
2021/12/16 08:42:51;;;;;;;387.90;90.22;;;;;;;-145.45;100.00;62759.84;5220279;28;20483;-89
2021/12/16 08:45:27;;;;;;;375.75;87.80;;;;;;;-145.45;100.00;62759.84;5220904;28;20125;-85
2021/12/16 08:48:00;;;;;;;695.35;101.72;;;;;;;-145.45;100.00;62759.84;5202758;28;20038;-87
2021/12/16 08:50:36;;;;;;;360.13;86.78;;;;;;;-145.45;100.00;62759.84;5202250;28;20043;-87
2021/12/16 08:53:08;;;;;;;371.55;91.10;;;;;;;-145.45;100.00;62759.84;5219768;28;20031;-86
2021/12/16 08:55:42;;;;;;;460.58;100.18;;;;;;;-145.45;100.00;62759.84;5220094;28;20500;-87
2021/12/16 08:58:14;;;;;;;1039.78;128.95;;;;;;;-145.45;100.00;62759.84;5220222;28;20412;-87
2021/12/16 09:00:54;;;;;;;276.75;82.93;;;;;;;-145.45;100.00;62759.84;5202204;28;20026;-86
2021/12/16 09:03:27;;;;;;;313.83;88.07;;;;;;;-145.45;100.00;62759.84;5201101;28;20070;-87
2021/12/16 09:05:59;;;;;;;296.83;84.18;;;;;;;-145.45;100.00;62759.84;5220175;28;20033;-86
2021/12/16 09:08:31;;;;;;;217.55;80.68;;;;;;;-145.45;100.00;62759.84;5219660;28;20406;-86
2021/12/16 09:11:06;;;;;;;558.03;104.75;;;;;;;-145.45;100.00;62759.84;5198587;28;20034;-86
2021/12/16 09:13:40;;;;;;;256.23;88.22;;;;;;;-145.45;100.00;62759.84;5218888;28;20110;-86
2021/12/16 09:16:14;;;;;;;307.55;88.55;;;;;;;-145.45;100.00;62759.84;5201402;28;20034;-85
2021/12/16 09:18:46;;;;;;;196.68;76.55;;;;;;;-145.45;100.00;62759.84;5218958;28;20022;-86
2021/12/16 09:21:23;;;;;;;235.00;90.07;;;;;;;-145.45;100.00;62759.84;5218833;28;20031;-85
2021/12/16 09:23:56;;;;;;;252.60;90.45;;;;;;;-145.45;100.00;62759.84;5219689;28;20116;-85
2021/12/16 09:26:28;;;;;;;199.63;79.68;;;;;;;-145.45;100.00;62759.84;5220030;28;20022;-85
2021/12/16 09:29:00;;;;;;;211.75;85.57;;;;;;;-145.45;100.00;62759.84;5201161;28;20093;-86
2021/12/16 09:31:32;;;;;;;183.57;74.68;;;;;;;-145.45;100.00;62759.84;5219371;28;20093;-87
2021/12/16 09:34:07;;;;;;;248.02;91.63;;;;;;;-145.45;100.00;62759.84;5200671;28;20088;-86
2021/12/16 09:36:41;;;;;;;268.42;95.40;;;;;;;-145.45;100.00;62759.84;5201933;28;20051;-85
2021/12/16 09:39:16;;;;;;;210.88;90.22;;;;;;;-145.45;100.00;62759.84;5219521;28;20861;-86
2021/12/16 09:41:50;;;;;;;247.95;95.47;;;;;;;-145.45;100.00;62759.84;5218235;28;20033;-86
2021/12/16 09:44:25;;;;;;;255.27;96.63;;;;;;;-145.45;100.00;62759.84;5201294;28;20117;-86
2021/12/16 09:46:59;;;;;;;207.48;91.90;;;;;;;-145.45;100.00;62759.84;5200978;28;20324;-86
2021/12/16 09:49:30;;;;;;;211.23;90.75;;;;;;;-145.45;100.00;62759.84;5218272;28;20041;-85
2021/12/16 09:52:05;;;;;;;243.60;98.10;;;;;;;-145.45;100.00;62759.84;5200834;28;20034;-85
2021/12/16 09:54:39;;;;;;;184.57;79.57;;;;;;;-145.45;100.00;62759.84;5219040;28;20015;-86
2021/12/16 09:57:12;;;;;;;188.07;85.75;;;;;;;-145.45;100.00;62759.84;5201218;28;20105;-86
2021/12/16 09:59:45;;;;;;;259.92;101.82;;;;;;;-145.45;100.00;62759.84;5201392;28;20037;-86
2021/12/16 10:02:20;;;;;;;187.63;84.95;;;;;;;-145.45;100.00;62759.84;5201449;28;20038;-86
2021/12/16 10:04:51;;;;;;;205.40;90.75;;;;;;;-145.45;100.00;62759.84;5208799;28;20113;-86
2021/12/16 10:07:27;;;;;;;215.32;102.47;;;;;;;-145.45;100.00;62759.84;5218881;28;20058;-85
2021/12/16 10:10:01;;;;;;;229.93;106.95;;;;;;;-145.45;100.00;62759.84;5218545;28;20042;-85
2021/12/16 10:12:37;;;;;;;222.70;104.43;;;;;;;-145.45;100.00;62759.84;5218635;28;20026;-85
2021/12/16 10:18:15;;;;;;;229.70;108.85;;;;;;;-145.45;100.00;62759.84;5214880;28;20038;-85
2021/12/16 10:21:00;;;;;;;212.27;109.55;;;;;;;-145.45;100.00;62759.84;5202160;28;20023;-85
2021/12/16 10:23:40;;;;;;;218.02;111.28;;;;;;;-145.45;100.00;62759.84;5220902;28;20095;-86
2021/12/16 10:26:21;;;;;;;251.20;126.68;;;;;;;-145.45;100.00;62759.84;5223154;28;20034;-85
2021/12/16 10:28:57;;;;;;;218.32;121.80;;;;;;;-145.45;100.00;62759.84;5227707;28;20046;-85
2021/12/16 10:31:36;;;;;;;189.48;105.18;;;;;;;-145.45;100.00;62759.84;5239551;28;20018;-86
2021/12/16 10:34:10;;;;;;;117.53;80.22;;;;;;;-145.45;100.00;62759.84;5231298;28;20065;-85
2021/12/16 10:36:47;;;;;;;105.40;72.22;;;;;;;-145.45;100.00;62759.84;5238888;28;20030;-85
2021/12/16 10:39:22;;;;;;;83.93;58.47;;;;;;;-145.45;100.00;62759.84;5214095;28;20491;-86
2021/12/16 10:42:00;;;;;;;74.75;50.03;;;;;;;-145.45;100.00;62759.84;5205160;28;20038;-86
2021/12/16 10:44:35;;;;;;;65.03;47.40;;;;;;;-145.45;100.00;62759.84;5222234;28;20030;-85
2021/12/16 10:47:13;;;;;;;48.33;35.38;;;;;;;-145.45;100.00;62759.84;5204752;28;20030;-85
2021/12/16 10:49:52;;;;;;;49.83;35.35;;;;;;;-145.45;100.00;62759.84;5221913;28;20038;-86
2021/12/16 10:52:28;;;;;;;43.50;34.83;;;;;;;-145.45;100.00;62759.84;5204578;28;20117;-86
2021/12/16 10:55:00;;;;;;;41.05;31.80;;;;;;;-145.45;100.00;62759.84;5222458;28;20050;-87
2021/12/16 10:57:32;;;;;;;39.33;30.23;;;;;;;-145.45;100.00;62759.84;5222802;28;20128;-87
2021/12/16 11:00:13;;;;;;;41.17;29.10;;;;;;;-145.45;100.00;62759.84;5222700;28;20527;-86
2021/12/16 11:02:44;;;;;;;37.17;28.25;;;;;;;-145.45;100.00;62759.84;5215829;28;20105;-87
2021/12/16 11:05:22;;;;;;;37.55;26.67;;;;;;;-145.45;100.00;62759.84;5201738;28;20460;-87
2021/12/16 11:07:58;;;;;;;29.73;22.67;;;;;;;-145.45;100.00;62759.84;5201969;28;20433;-86
2021/12/16 11:10:33;;;;;;;29.67;20.45;;;;;;;-145.45;100.00;62759.84;5201941;28;20034;-86
2021/12/16 11:13:08;;;;;;;28.65;21.15;;;;;;;-145.45;100.00;62759.84;5201655;28;20035;-86
2021/12/16 11:15:52;;;;;;;20.73;16.70;;;;;;;-145.45;100.00;62759.84;5202056;28;20026;-86
2021/12/16 11:18:26;;;;;;;24.50;16.23;;;;;;;-145.45;100.00;62759.84;5201721;28;20081;-86
2021/12/16 11:21:09;;;;;;;22.77;16.67;;;;;;;-145.45;100.00;62759.84;5211681;28;20026;-86
2021/12/16 11:23:43;;;;;;;23.73;14.55;;;;;;;-145.45;100.00;62759.84;5201100;28;20333;-86
2021/12/16 11:26:26;;;;;;;19.40;13.82;;;;;;;-145.45;100.00;62759.84;5201577;28;20133;-86
2021/12/16 11:28:57;;;;;;;17.13;12.70;;;;;;;-145.45;100.00;62759.84;5208255;28;20452;-86
2021/12/16 11:31:32;;;;;;;20.75;14.10;;;;;;;-145.45;100.00;62759.84;5201491;28;20019;-86
2021/12/16 11:34:08;;;;;;;17.40;14.68;;;;;;;-145.45;100.00;62759.84;5201217;28;20029;-86
2021/12/16 11:36:45;;;;;;;15.80;12.65;;;;;;;-145.45;100.00;62759.84;5213270;28;20468;-87
2021/12/16 11:39:22;;;;;;;17.02;12.70;;;;;;;-145.45;100.00;62759.84;5221351;28;20022;-87
2021/12/16 11:42:01;;;;;;;16.58;12.68;;;;;;;-145.45;100.00;62759.84;5221907;28;20041;-87
2021/12/16 11:44:38;;;;;;;14.65;12.80;;;;;;;-145.45;100.00;62759.84;5203455;28;20077;-87
2021/12/16 11:47:23;;;;;;;20.65;13.43;;;;;;;-145.45;100.00;62759.84;5221776;28;20442;-87
2021/12/16 11:50:03;;;;;;;20.73;14.40;;;;;;;-145.45;100.00;62759.84;5221336;28;20034;-87
2021/12/16 11:52:38;;;;;;;16.63;13.07;;;;;;;-145.45;100.00;62759.84;5220657;28;20023;-87
2021/12/16 11:55:13;;;;;;;16.98;13.85;;;;;;;-145.45;100.00;62759.84;5201248;28;20504;-87
2021/12/16 11:57:50;;;;;;;14.05;10.57;;;;;;;-145.45;100.00;62759.84;5201008;28;20038;-87
2021/12/16 12:00:27;;;;;;;15.32;11.35;;;;;;;-145.45;100.00;62759.84;5200836;28;20023;-87
2021/12/16 12:03:11;;;;;;;15.45;11.43;;;;;;;-145.45;100.00;62759.84;5201429;28;20039;-87
2021/12/16 12:05:46;;;;;;;11.82;9.73;;;;;;;-145.45;100.00;62759.84;5203601;28;20031;-87
2021/12/16 12:08:26;;;;;;;14.35;10.07;;;;;;;-145.45;100.00;62759.84;5226817;28;20055;-86
2021/12/16 12:11:13;;;;;;;12.52;9.70;;;;;;;-145.45;100.00;62759.84;5246258;28;20035;-87
2021/12/16 12:13:51;;;;;;;16.05;10.02;;;;;;;-145.45;100.00;62759.84;5234629;28;20026;-87
2021/12/16 12:16:37;;;;;;;13.45;10.50;;;;;;;-145.45;100.00;62759.84;5221268;28;20026;-87
2021/12/16 12:19:16;;;;;;;14.80;11.23;;;;;;;-145.45;100.00;62759.84;5221598;28;20037;-87
2021/12/16 12:22:00;;;;;;;19.52;11.25;;;;;;;-145.45;100.00;62759.84;5189413;28;20019;-87
2021/12/16 12:24:43;;;;;;;14.75;11.07;;;;;;;-145.45;100.00;62759.84;5200581;28;20487;-87
2021/12/16 12:27:20;;;;;;;17.35;12.02;;;;;;;-145.45;100.00;62759.84;5200927;28;20023;-87
2021/12/16 12:30:03;;;;;;;15.18;10.52;;;;;;;-145.45;100.00;62759.84;5209855;28;20372;-88
2021/12/16 12:32:38;;;;;;;16.00;11.00;;;;;;;-145.45;100.00;62759.84;5222066;28;20341;-87
2021/12/16 12:35:15;;;;;;;16.88;11.88;;;;;;;-145.45;100.00;62759.84;5207224;28;20034;-86
2021/12/16 12:37:51;;;;;;;14.65;11.57;;;;;;;-145.45;100.00;62759.84;5183598;28;20007;-86
2021/12/16 12:40:36;;;;;;;14.38;11.65;;;;;;;-145.45;100.00;62759.84;5189110;28;20327;-86
2021/12/16 12:43:09;;;;;;;15.80;11.65;;;;;;;-145.45;100.00;62759.84;5217921;28;20019;-86
2021/12/16 12:45:41;;;;;;;15.00;11.13;;;;;;;-145.45;100.00;62759.84;5206865;28;20054;-86
2021/12/16 12:48:19;;;;;;;12.32;9.98;;;;;;;-145.45;100.00;62759.84;5204361;28;20050;-87
2021/12/16 12:50:57;;;;;;;14.98;11.18;;;;;;;-145.45;100.00;62759.84;5200231;28;20105;-86
2021/12/16 12:53:46;;;;;;;17.15;11.02;;;;;;;-145.45;100.00;62759.84;5200685;28;20031;-87
2021/12/16 12:56:22;;;;;;;11.98;10.63;;;;;;;-145.45;100.00;62759.84;5202850;28;20030;-87
2021/12/16 12:59:06;;;;;;;14.25;10.60;;;;;;;-145.45;100.00;62759.84;5201227;28;20026;-87
2021/12/16 13:01:50;;;;;;;16.10;9.88;;;;;;;-145.45;100.00;62759.84;5191634;28;20025;-87
2021/12/16 13:04:29;;;;;;;15.93;10.40;;;;;;;-145.45;100.00;62759.84;5209321;28;20031;-86
2021/12/16 13:07:07;;;;;;;14.10;9.30;;;;;;;-145.45;100.00;62759.84;5207621;28;20388;-86
2021/12/16 13:09:54;;;;;;;12.63;10.18;;;;;;;-145.45;100.00;62759.84;5187261;28;20165;-85
2021/12/16 13:12:47;;;;;;;14.90;10.23;;;;;;;-145.45;100.00;62759.84;5202013;28;20037;-86
2021/12/16 13:15:43;;;;;;;14.00;9.32;;;;;;;-145.45;100.00;62759.84;5220721;28;20403;-86
2021/12/16 13:27:09;;;;;;;15.15;10.20;;;;;;;-145.45;100.00;62759.84;5199742;28;20122;-86
2021/12/16 13:30:04;;;;;;;11.95;9.50;;;;;;;-145.45;100.00;62759.84;5186523;28;20142;-87
2021/12/16 13:32:45;;;;;;;12.52;8.68;;;;;;;-145.45;100.00;62759.84;5208950;28;20110;-86
2021/12/16 13:35:33;;;;;;;11.77;8.52;;;;;;;-145.45;100.00;62759.84;5203608;28;20468;-86
2021/12/16 13:38:08;;;;;;;13.95;9.18;;;;;;;-145.45;100.00;62759.84;5194452;28;20151;-87
2021/12/16 13:40:43;;;;;;;15.35;9.18;;;;;;;-145.45;100.00;62759.84;5219899;28;20096;-86
2021/12/16 13:43:23;;;;;;;13.13;9.82;;;;;;;-145.45;100.00;62759.84;5201950;28;20026;-86
2021/12/16 13:58:42;;;;;;;12.85;8.95;;;;;;;-145.45;100.00;62759.84;5219889;28;20038;-86